sensor_id;sensor_type;location;lat;lon;timestamp;temperature;humidity
40289;DHT22;28991;52.028;5.526;2024-03-02T00:01:40;18.30;47.40
40289;DHT22;28991;52.028;5.526;2024-03-02T00:04:07;18.30;47.40
40289;DHT22;28991;52.028;5.526;2024-03-02T00:06:33;18.40;47.50
40289;DHT22;28991;52.028;5.526;2024-03-02T00:08:59;18.40;47.40
40289;DHT22;28991;52.028;5.526;2024-03-02T00:11:24;18.30;47.40
40289;DHT22;28991;52.028;5.526;2024-03-02T00:13:52;18.30;47.40
40289;DHT22;28991;52.028;5.526;2024-03-02T00:16:18;18.30;47.40
40289;DHT22;28991;52.028;5.526;2024-03-02T00:18:44;18.20;47.40
40289;DHT22;28991;52.028;5.526;2024-03-02T00:21:10;18.30;47.50
40289;DHT22;28991;52.028;5.526;2024-03-02T00:23:37;18.30;47.40
40289;DHT22;28991;52.028;5.526;2024-03-02T00:26:03;18.30;47.40
40289;DHT22;28991;52.028;5.526;2024-03-02T00:28:33;18.30;47.50
40289;DHT22;28991;52.028;5.526;2024-03-02T00:31:09;18.30;47.50
40289;DHT22;28991;52.028;5.526;2024-03-02T00:33:44;18.40;47.60
40289;DHT22;28991;52.028;5.526;2024-03-02T00:36:11;18.20;47.50
40289;DHT22;28991;52.028;5.526;2024-03-02T00:38:47;18.50;47.70
40289;DHT22;28991;52.028;5.526;2024-03-02T00:43:50;18.20;47.60
40289;DHT22;28991;52.028;5.526;2024-03-02T00:46:19;18.30;47.70
40289;DHT22;28991;52.028;5.526;2024-03-02T00:51:20;18.30;47.70
40289;DHT22;28991;52.028;5.526;2024-03-02T00:53:45;18.30;47.80
40289;DHT22;28991;52.028;5.526;2024-03-02T00:56:11;18.30;47.80
40289;DHT22;28991;52.028;5.526;2024-03-02T00:58:37;18.30;47.80
40289;DHT22;28991;52.028;5.526;2024-03-02T01:01:03;18.30;47.90
40289;DHT22;28991;52.028;5.526;2024-03-02T01:03:30;18.20;47.90
40289;DHT22;28991;52.028;5.526;2024-03-02T01:05:56;18.20;47.80
40289;DHT22;28991;52.028;5.526;2024-03-02T01:08:22;18.40;48.00
40289;DHT22;28991;52.028;5.526;2024-03-02T01:10:47;18.30;48.00
40289;DHT22;28991;52.028;5.526;2024-03-02T01:13:13;18.30;48.00
40289;DHT22;28991;52.028;5.526;2024-03-02T01:15:38;18.30;48.10
40289;DHT22;28991;52.028;5.526;2024-03-02T01:18:04;18.20;48.00
40289;DHT22;28991;52.028;5.526;2024-03-02T01:20:30;18.30;48.10
40289;DHT22;28991;52.028;5.526;2024-03-02T01:22:55;18.20;48.10
40289;DHT22;28991;52.028;5.526;2024-03-02T01:25:21;18.20;48.10
40289;DHT22;28991;52.028;5.526;2024-03-02T01:27:46;18.30;48.20
40289;DHT22;28991;52.028;5.526;2024-03-02T01:30:12;18.20;48.20
40289;DHT22;28991;52.028;5.526;2024-03-02T01:32:38;18.20;48.20
40289;DHT22;28991;52.028;5.526;2024-03-02T01:35:04;17.70;48.00
40289;DHT22;28991;52.028;5.526;2024-03-02T01:37:30;18.30;48.30
40289;DHT22;28991;52.028;5.526;2024-03-02T01:39:56;18.20;48.30
40289;DHT22;28991;52.028;5.526;2024-03-02T01:42:21;18.30;48.40
40289;DHT22;28991;52.028;5.526;2024-03-02T01:44:47;18.60;48.60
40289;DHT22;28991;52.028;5.526;2024-03-02T01:47:13;18.50;48.60
40289;DHT22;28991;52.028;5.526;2024-03-02T01:49:39;18.20;48.40
40289;DHT22;28991;52.028;5.526;2024-03-02T01:52:06;19.40;49.10
40289;DHT22;28991;52.028;5.526;2024-03-02T01:54:32;18.20;48.40
40289;DHT22;28991;52.028;5.526;2024-03-02T01:56:58;18.20;48.40
40289;DHT22;28991;52.028;5.526;2024-03-02T01:59:24;18.20;48.50
40289;DHT22;28991;52.028;5.526;2024-03-02T02:01:49;18.20;48.50
40289;DHT22;28991;52.028;5.526;2024-03-02T02:04:15;18.30;48.60
40289;DHT22;28991;52.028;5.526;2024-03-02T02:06:40;18.30;48.60
40289;DHT22;28991;52.028;5.526;2024-03-02T02:09:06;18.40;48.70
40289;DHT22;28991;52.028;5.526;2024-03-02T02:11:34;18.20;48.60
40289;DHT22;28991;52.028;5.526;2024-03-02T02:13:59;18.20;48.70
40289;DHT22;28991;52.028;5.526;2024-03-02T02:16:25;18.20;48.70
40289;DHT22;28991;52.028;5.526;2024-03-02T02:18:51;18.20;48.70
40289;DHT22;28991;52.028;5.526;2024-03-02T02:21:16;18.20;48.80
40289;DHT22;28991;52.028;5.526;2024-03-02T02:23:42;18.30;48.80
40289;DHT22;28991;52.028;5.526;2024-03-02T02:26:11;18.20;48.70
40289;DHT22;28991;52.028;5.526;2024-03-02T02:28:37;18.20;48.80
40289;DHT22;28991;52.028;5.526;2024-03-02T02:31:03;18.40;48.90
40289;DHT22;28991;52.028;5.526;2024-03-02T02:33:28;18.20;48.80
40289;DHT22;28991;52.028;5.526;2024-03-02T02:35:54;18.20;48.80
40289;DHT22;28991;52.028;5.526;2024-03-02T02:38:20;18.20;48.90
40289;DHT22;28991;52.028;5.526;2024-03-02T02:40:45;18.20;48.90
40289;DHT22;28991;52.028;5.526;2024-03-02T02:43:11;18.20;48.90
40289;DHT22;28991;52.028;5.526;2024-03-02T02:45:37;18.20;48.90
40289;DHT22;28991;52.028;5.526;2024-03-02T02:48:02;18.20;48.90
40289;DHT22;28991;52.028;5.526;2024-03-02T02:50:28;18.20;48.90
40289;DHT22;28991;52.028;5.526;2024-03-02T02:52:54;18.10;48.90
40289;DHT22;28991;52.028;5.526;2024-03-02T02:55:19;18.20;48.90
40289;DHT22;28991;52.028;5.526;2024-03-02T02:57:45;18.20;49.00
40289;DHT22;28991;52.028;5.526;2024-03-02T03:00:13;18.20;49.10
40289;DHT22;28991;52.028;5.526;2024-03-02T03:02:41;18.20;49.00
40289;DHT22;28991;52.028;5.526;2024-03-02T03:05:08;18.30;49.10
40289;DHT22;28991;52.028;5.526;2024-03-02T03:07:34;18.20;49.10
40289;DHT22;28991;52.028;5.526;2024-03-02T03:10:02;18.20;49.10
40289;DHT22;28991;52.028;5.526;2024-03-02T03:12:29;18.40;49.20
40289;DHT22;28991;52.028;5.526;2024-03-02T03:14:55;18.10;49.10
40289;DHT22;28991;52.028;5.526;2024-03-02T03:17:21;18.20;49.10
40289;DHT22;28991;52.028;5.526;2024-03-02T03:19:47;18.20;49.10
40289;DHT22;28991;52.028;5.526;2024-03-02T03:22:13;18.00;49.00
40289;DHT22;28991;52.028;5.526;2024-03-02T03:24:39;18.20;49.10
40289;DHT22;28991;52.028;5.526;2024-03-02T03:27:04;18.30;49.20
40289;DHT22;28991;52.028;5.526;2024-03-02T03:29:30;18.10;49.10
40289;DHT22;28991;52.028;5.526;2024-03-02T03:31:55;18.20;49.20
40289;DHT22;28991;52.028;5.526;2024-03-02T03:34:21;18.50;49.40
40289;DHT22;28991;52.028;5.526;2024-03-02T03:36:46;18.20;49.30
40289;DHT22;28991;52.028;5.526;2024-03-02T03:39:12;18.20;49.30
40289;DHT22;28991;52.028;5.526;2024-03-02T03:41:37;18.20;49.20
40289;DHT22;28991;52.028;5.526;2024-03-02T03:44:03;18.20;49.30
40289;DHT22;28991;52.028;5.526;2024-03-02T03:46:29;18.20;49.30
40289;DHT22;28991;52.028;5.526;2024-03-02T03:48:54;18.20;49.30
40289;DHT22;28991;52.028;5.526;2024-03-02T03:51:21;18.20;49.30
40289;DHT22;28991;52.028;5.526;2024-03-02T03:53:48;18.20;49.40
40289;DHT22;28991;52.028;5.526;2024-03-02T03:56:14;18.20;49.40
40289;DHT22;28991;52.028;5.526;2024-03-02T03:58:39;18.20;49.30
40289;DHT22;28991;52.028;5.526;2024-03-02T04:01:05;18.20;49.40
40289;DHT22;28991;52.028;5.526;2024-03-02T04:03:30;18.20;49.40
40289;DHT22;28991;52.028;5.526;2024-03-02T04:05:56;18.20;49.40
40289;DHT22;28991;52.028;5.526;2024-03-02T04:08:21;18.10;49.40
40289;DHT22;28991;52.028;5.526;2024-03-02T04:10:47;18.10;49.40
40289;DHT22;28991;52.028;5.526;2024-03-02T04:13:13;18.20;49.50
40289;DHT22;28991;52.028;5.526;2024-03-02T04:15:38;18.10;49.40
40289;DHT22;28991;52.028;5.526;2024-03-02T04:18:06;18.10;49.40
40289;DHT22;28991;52.028;5.526;2024-03-02T04:20:31;18.10;49.40
40289;DHT22;28991;52.028;5.526;2024-03-02T04:22:57;18.20;49.50
40289;DHT22;28991;52.028;5.526;2024-03-02T04:25:23;18.10;49.50
40289;DHT22;28991;52.028;5.526;2024-03-02T04:27:48;18.00;49.40
40289;DHT22;28991;52.028;5.526;2024-03-02T04:30:14;18.20;49.50
40289;DHT22;28991;52.028;5.526;2024-03-02T04:32:40;18.10;49.50
40289;DHT22;28991;52.028;5.526;2024-03-02T04:35:06;18.10;49.50
40289;DHT22;28991;52.028;5.526;2024-03-02T04:37:35;18.20;49.50
40289;DHT22;28991;52.028;5.526;2024-03-02T04:40:01;18.20;49.60
40289;DHT22;28991;52.028;5.526;2024-03-02T04:42:26;18.10;49.50
40289;DHT22;28991;52.028;5.526;2024-03-02T04:44:52;18.60;49.80
40289;DHT22;28991;52.028;5.526;2024-03-02T04:47:17;18.10;49.60
40289;DHT22;28991;52.028;5.526;2024-03-02T04:49:43;18.00;49.50
40289;DHT22;28991;52.028;5.526;2024-03-02T04:52:09;18.80;50.00
40289;DHT22;28991;52.028;5.526;2024-03-02T04:54:34;18.20;49.60
40289;DHT22;28991;52.028;5.526;2024-03-02T04:57:20;18.10;49.60
40289;DHT22;28991;52.028;5.526;2024-03-02T04:59:45;18.10;49.60
40289;DHT22;28991;52.028;5.526;2024-03-02T05:02:11;18.10;49.70
40289;DHT22;28991;52.028;5.526;2024-03-02T05:04:39;18.10;49.70
40289;DHT22;28991;52.028;5.526;2024-03-02T05:07:05;18.10;49.70
40289;DHT22;28991;52.028;5.526;2024-03-02T05:09:31;18.10;49.70
40289;DHT22;28991;52.028;5.526;2024-03-02T05:11:56;18.20;49.70
40289;DHT22;28991;52.028;5.526;2024-03-02T05:14:42;18.10;49.70
40289;DHT22;28991;52.028;5.526;2024-03-02T05:17:08;18.10;49.70
40289;DHT22;28991;52.028;5.526;2024-03-02T05:19:33;18.00;49.60
40289;DHT22;28991;52.028;5.526;2024-03-02T05:21:59;18.60;50.00
40289;DHT22;28991;52.028;5.526;2024-03-02T05:24:24;18.10;49.70
40289;DHT22;28991;52.028;5.526;2024-03-02T05:26:52;17.90;49.60
40289;DHT22;28991;52.028;5.526;2024-03-02T05:29:18;18.20;49.80
40289;DHT22;28991;52.028;5.526;2024-03-02T05:31:44;18.00;49.70
40289;DHT22;28991;52.028;5.526;2024-03-02T05:34:09;18.00;49.70
40289;DHT22;28991;52.028;5.526;2024-03-02T05:36:35;18.10;49.70
40289;DHT22;28991;52.028;5.526;2024-03-02T05:39:00;18.10;49.80
40289;DHT22;28991;52.028;5.526;2024-03-02T05:41:27;18.10;49.90
40289;DHT22;28991;52.028;5.526;2024-03-02T05:43:52;18.10;49.80
40289;DHT22;28991;52.028;5.526;2024-03-02T05:46:18;18.10;49.90
40289;DHT22;28991;52.028;5.526;2024-03-02T05:48:43;18.40;50.00
40289;DHT22;28991;52.028;5.526;2024-03-02T05:51:09;18.10;49.80
40289;DHT22;28991;52.028;5.526;2024-03-02T05:53:34;18.10;49.90
40289;DHT22;28991;52.028;5.526;2024-03-02T05:56:03;18.20;49.90
40289;DHT22;28991;52.028;5.526;2024-03-02T05:58:30;18.10;50.50
40289;DHT22;28991;52.028;5.526;2024-03-02T06:01:14;18.10;49.90
40289;DHT22;28991;52.028;5.526;2024-03-02T06:03:39;18.80;50.30
40289;DHT22;28991;52.028;5.526;2024-03-02T06:06:05;18.10;49.90
40289;DHT22;28991;52.028;5.526;2024-03-02T06:08:31;18.10;49.90
40289;DHT22;28991;52.028;5.526;2024-03-02T06:10:56;18.20;50.00
40289;DHT22;28991;52.028;5.526;2024-03-02T06:13:22;18.10;49.90
40289;DHT22;28991;52.028;5.526;2024-03-02T06:15:48;18.30;50.10
40289;DHT22;28991;52.028;5.526;2024-03-02T06:18:14;18.40;50.10
40289;DHT22;28991;52.028;5.526;2024-03-02T06:20:39;18.00;49.90
40289;DHT22;28991;52.028;5.526;2024-03-02T06:23:05;18.10;50.00
40289;DHT22;28991;52.028;5.526;2024-03-02T06:25:30;18.60;50.20
40289;DHT22;28991;52.028;5.526;2024-03-02T06:27:56;18.00;49.90
40289;DHT22;28991;52.028;5.526;2024-03-02T06:30:22;18.10;50.00
40289;DHT22;28991;52.028;5.526;2024-03-02T06:32:47;18.10;50.00
40289;DHT22;28991;52.028;5.526;2024-03-02T06:35:13;17.90;49.90
40289;DHT22;28991;52.028;5.526;2024-03-02T06:37:39;18.10;50.00
40289;DHT22;28991;52.028;5.526;2024-03-02T06:40:06;18.00;50.00
40289;DHT22;28991;52.028;5.526;2024-03-02T06:42:33;18.10;50.10
40289;DHT22;28991;52.028;5.526;2024-03-02T06:44:59;18.10;50.10
40289;DHT22;28991;52.028;5.526;2024-03-02T06:47:25;18.00;50.00
40289;DHT22;28991;52.028;5.526;2024-03-02T06:49:50;18.10;50.00
40289;DHT22;28991;52.028;5.526;2024-03-02T06:52:16;18.10;50.00
40289;DHT22;28991;52.028;5.526;2024-03-02T06:54:42;18.10;50.00
40289;DHT22;28991;52.028;5.526;2024-03-02T06:57:07;18.20;50.10
40289;DHT22;28991;52.028;5.526;2024-03-02T06:59:33;18.10;50.00
40289;DHT22;28991;52.028;5.526;2024-03-02T07:01:59;18.10;50.00
40289;DHT22;28991;52.028;5.526;2024-03-02T07:04:25;18.10;50.00
40289;DHT22;28991;52.028;5.526;2024-03-02T07:06:50;18.20;50.10
40289;DHT22;28991;52.028;5.526;2024-03-02T07:09:16;18.30;50.10
40289;DHT22;28991;52.028;5.526;2024-03-02T07:11:42;18.20;50.00
40289;DHT22;28991;52.028;5.526;2024-03-02T07:14:07;18.30;50.00
40289;DHT22;28991;52.028;5.526;2024-03-02T07:16:33;18.30;49.90
40289;DHT22;28991;52.028;5.526;2024-03-02T07:19:00;18.30;49.90
40289;DHT22;28991;52.028;5.526;2024-03-02T07:21:27;18.20;49.90
40289;DHT22;28991;52.028;5.526;2024-03-02T07:23:53;18.40;50.00
40289;DHT22;28991;52.028;5.526;2024-03-02T07:26:18;18.40;49.90
40289;DHT22;28991;52.028;5.526;2024-03-02T07:28:46;18.30;49.90
40289;DHT22;28991;52.028;5.526;2024-03-02T07:31:13;18.20;49.90
40289;DHT22;28991;52.028;5.526;2024-03-02T07:33:38;18.20;49.80
40289;DHT22;28991;52.028;5.526;2024-03-02T07:36:04;18.30;49.90
40289;DHT22;28991;52.028;5.526;2024-03-02T07:38:31;18.30;49.90
40289;DHT22;28991;52.028;5.526;2024-03-02T07:40:57;18.20;49.80
40289;DHT22;28991;52.028;5.526;2024-03-02T07:43:23;18.50;48.50
40289;DHT22;28991;52.028;5.526;2024-03-02T07:45:49;18.30;47.40
40289;DHT22;28991;52.028;5.526;2024-03-02T07:48:15;18.40;46.70
40289;DHT22;28991;52.028;5.526;2024-03-02T07:50:40;18.80;46.50
40289;DHT22;28991;52.028;5.526;2024-03-02T07:53:06;18.50;46.30
40289;DHT22;28991;52.028;5.526;2024-03-02T07:55:33;18.60;45.80
40289;DHT22;28991;52.028;5.526;2024-03-02T07:58:00;18.60;45.70
40289;DHT22;28991;52.028;5.526;2024-03-02T08:00:26;19.20;46.40
40289;DHT22;28991;52.028;5.526;2024-03-02T08:02:53;18.80;45.60
40289;DHT22;28991;52.028;5.526;2024-03-02T08:05:18;18.80;45.60
40289;DHT22;28991;52.028;5.526;2024-03-02T08:07:45;18.70;45.60
40289;DHT22;28991;52.028;5.526;2024-03-02T08:10:11;18.90;45.60
40289;DHT22;28991;52.028;5.526;2024-03-02T08:12:37;18.90;45.50
40289;DHT22;28991;52.028;5.526;2024-03-02T08:15:02;18.90;45.20
40289;DHT22;28991;52.028;5.526;2024-03-02T08:17:28;18.90;45.20
40289;DHT22;28991;52.028;5.526;2024-03-02T08:19:54;18.90;44.90
40289;DHT22;28991;52.028;5.526;2024-03-02T08:22:19;18.90;45.10
40289;DHT22;28991;52.028;5.526;2024-03-02T08:24:45;19.30;45.30
40289;DHT22;28991;52.028;5.526;2024-03-02T08:27:11;19.00;45.00
40289;DHT22;28991;52.028;5.526;2024-03-02T08:29:37;19.00;45.00
40289;DHT22;28991;52.028;5.526;2024-03-02T08:32:03;19.00;44.50
40289;DHT22;28991;52.028;5.526;2024-03-02T08:34:29;19.00;44.90
40289;DHT22;28991;52.028;5.526;2024-03-02T08:36:54;19.10;44.80
40289;DHT22;28991;52.028;5.526;2024-03-02T08:39:20;19.10;44.30
40289;DHT22;28991;52.028;5.526;2024-03-02T08:41:46;19.10;44.40
40289;DHT22;28991;52.028;5.526;2024-03-02T08:44:12;19.10;44.60
40289;DHT22;28991;52.028;5.526;2024-03-02T08:46:39;19.20;44.60
40289;DHT22;28991;52.028;5.526;2024-03-02T08:49:05;19.10;44.70
40289;DHT22;28991;52.028;5.526;2024-03-02T08:51:31;19.10;45.10
40289;DHT22;28991;52.028;5.526;2024-03-02T08:53:57;19.10;44.50
40289;DHT22;28991;52.028;5.526;2024-03-02T08:56:23;19.10;44.20
40289;DHT22;28991;52.028;5.526;2024-03-02T08:58:50;19.20;44.30
40289;DHT22;28991;52.028;5.526;2024-03-02T09:01:16;19.20;44.10
40289;DHT22;28991;52.028;5.526;2024-03-02T09:03:42;19.20;44.20
40289;DHT22;28991;52.028;5.526;2024-03-02T09:06:11;19.20;44.00
40289;DHT22;28991;52.028;5.526;2024-03-02T09:08:37;19.30;43.60
40289;DHT22;28991;52.028;5.526;2024-03-02T09:11:04;19.20;43.70
40289;DHT22;28991;52.028;5.526;2024-03-02T09:13:30;19.30;43.50
40289;DHT22;28991;52.028;5.526;2024-03-02T09:15:56;19.30;43.50
40289;DHT22;28991;52.028;5.526;2024-03-02T09:18:22;19.20;43.30
40289;DHT22;28991;52.028;5.526;2024-03-02T09:20:47;19.30;43.30
40289;DHT22;28991;52.028;5.526;2024-03-02T09:23:13;19.30;43.50
40289;DHT22;28991;52.028;5.526;2024-03-02T09:25:38;19.30;43.30
40289;DHT22;28991;52.028;5.526;2024-03-02T09:28:04;19.30;43.20
40289;DHT22;28991;52.028;5.526;2024-03-02T09:30:30;19.30;43.10
40289;DHT22;28991;52.028;5.526;2024-03-02T09:32:55;19.40;43.20
40289;DHT22;28991;52.028;5.526;2024-03-02T09:35:21;19.40;42.90
40289;DHT22;28991;52.028;5.526;2024-03-02T09:37:46;19.30;42.90
40289;DHT22;28991;52.028;5.526;2024-03-02T09:40:13;19.40;43.10
40289;DHT22;28991;52.028;5.526;2024-03-02T09:42:39;19.40;42.80
40289;DHT22;28991;52.028;5.526;2024-03-02T09:45:06;19.40;42.90
40289;DHT22;28991;52.028;5.526;2024-03-02T09:47:32;19.40;43.10
40289;DHT22;28991;52.028;5.526;2024-03-02T09:49:58;19.60;42.50
40289;DHT22;28991;52.028;5.526;2024-03-02T09:52:24;19.50;42.70
40289;DHT22;28991;52.028;5.526;2024-03-02T09:54:50;19.40;42.60
40289;DHT22;28991;52.028;5.526;2024-03-02T09:57:16;19.70;42.50
40289;DHT22;28991;52.028;5.526;2024-03-02T09:59:41;19.50;42.40
40289;DHT22;28991;52.028;5.526;2024-03-02T10:02:07;19.50;42.30
40289;DHT22;28991;52.028;5.526;2024-03-02T10:04:33;19.30;42.10
40289;DHT22;28991;52.028;5.526;2024-03-02T10:07:16;20.10;42.30
40289;DHT22;28991;52.028;5.526;2024-03-02T10:09:44;19.50;42.00
40289;DHT22;28991;52.028;5.526;2024-03-02T10:12:11;19.70;41.70
40289;DHT22;28991;52.028;5.526;2024-03-02T10:14:38;19.50;42.40
40289;DHT22;28991;52.028;5.526;2024-03-02T10:17:13;19.60;41.90
40289;DHT22;28991;52.028;5.526;2024-03-02T10:19:39;19.80;41.90
40289;DHT22;28991;52.028;5.526;2024-03-02T10:22:07;19.50;42.20
40289;DHT22;28991;52.028;5.526;2024-03-02T10:24:43;19.60;41.70
40289;DHT22;28991;52.028;5.526;2024-03-02T10:27:17;19.60;41.70
40289;DHT22;28991;52.028;5.526;2024-03-02T10:29:45;19.70;41.80
40289;DHT22;28991;52.028;5.526;2024-03-02T10:32:12;19.50;41.10
40289;DHT22;28991;52.028;5.526;2024-03-02T10:34:40;19.80;41.70
40289;DHT22;28991;52.028;5.526;2024-03-02T10:37:06;19.60;41.60
40289;DHT22;28991;52.028;5.526;2024-03-02T10:39:33;20.10;41.40
40289;DHT22;28991;52.028;5.526;2024-03-02T10:42:02;19.60;41.40
40289;DHT22;28991;52.028;5.526;2024-03-02T10:44:29;19.60;41.20
40289;DHT22;28991;52.028;5.526;2024-03-02T10:46:56;19.60;40.80
40289;DHT22;28991;52.028;5.526;2024-03-02T10:49:23;19.60;41.30
40289;DHT22;28991;52.028;5.526;2024-03-02T10:51:49;19.60;41.00
40289;DHT22;28991;52.028;5.526;2024-03-02T10:54:15;19.60;41.30
40289;DHT22;28991;52.028;5.526;2024-03-02T10:56:42;19.60;41.10
40289;DHT22;28991;52.028;5.526;2024-03-02T10:59:32;19.60;40.90
40289;DHT22;28991;52.028;5.526;2024-03-02T11:02:00;19.60;40.70
40289;DHT22;28991;52.028;5.526;2024-03-02T11:04:27;19.60;41.10
40289;DHT22;28991;52.028;5.526;2024-03-02T11:07:05;20.10;41.00
40289;DHT22;28991;52.028;5.526;2024-03-02T11:09:34;19.60;40.70
40289;DHT22;28991;52.028;5.526;2024-03-02T11:14:31;19.70;40.80
40289;DHT22;28991;52.028;5.526;2024-03-02T11:17:01;20.00;40.90
40289;DHT22;28991;52.028;5.526;2024-03-02T11:19:29;19.70;40.50
40289;DHT22;28991;52.028;5.526;2024-03-02T11:21:54;19.90;40.80
40289;DHT22;28991;52.028;5.526;2024-03-02T11:26:50;19.70;40.60
40289;DHT22;28991;52.028;5.526;2024-03-02T11:32:22;19.70;40.70
40289;DHT22;28991;52.028;5.526;2024-03-02T11:34:51;19.70;40.80
40289;DHT22;28991;52.028;5.526;2024-03-02T11:37:18;19.60;40.70
40289;DHT22;28991;52.028;5.526;2024-03-02T11:39:49;19.60;41.20
40289;DHT22;28991;52.028;5.526;2024-03-02T11:42:15;19.70;40.50
40289;DHT22;28991;52.028;5.526;2024-03-02T11:44:46;19.70;40.70
40289;DHT22;28991;52.028;5.526;2024-03-02T11:47:14;19.70;40.70
40289;DHT22;28991;52.028;5.526;2024-03-02T11:49:50;19.60;40.80
40289;DHT22;28991;52.028;5.526;2024-03-02T11:52:17;19.60;40.10
40289;DHT22;28991;52.028;5.526;2024-03-02T11:54:47;19.70;40.70
40289;DHT22;28991;52.028;5.526;2024-03-02T11:57:15;20.00;40.70
40289;DHT22;28991;52.028;5.526;2024-03-02T11:59:41;19.60;40.50
40289;DHT22;28991;52.028;5.526;2024-03-02T12:02:16;19.60;40.60
40289;DHT22;28991;52.028;5.526;2024-03-02T12:04:47;19.60;40.00
40289;DHT22;28991;52.028;5.526;2024-03-02T12:07:22;19.60;40.20
40289;DHT22;28991;52.028;5.526;2024-03-02T12:09:49;19.80;40.70
40289;DHT22;28991;52.028;5.526;2024-03-02T12:12:24;19.50;40.90
40289;DHT22;28991;52.028;5.526;2024-03-02T12:14:53;19.50;41.20
40289;DHT22;28991;52.028;5.526;2024-03-02T12:17:21;19.40;41.30
40289;DHT22;28991;52.028;5.526;2024-03-02T12:19:47;19.50;41.60
40289;DHT22;28991;52.028;5.526;2024-03-02T12:22:13;19.40;41.60
40289;DHT22;28991;52.028;5.526;2024-03-02T12:24:38;19.30;41.80
40289;DHT22;28991;52.028;5.526;2024-03-02T12:27:05;19.50;41.90
40289;DHT22;28991;52.028;5.526;2024-03-02T12:29:32;19.30;42.00
40289;DHT22;28991;52.028;5.526;2024-03-02T12:31:59;19.30;42.10
40289;DHT22;28991;52.028;5.526;2024-03-02T12:34:26;19.40;42.20
40289;DHT22;28991;52.028;5.526;2024-03-02T12:36:51;19.30;42.20
40289;DHT22;28991;52.028;5.526;2024-03-02T12:39:21;19.30;42.30
40289;DHT22;28991;52.028;5.526;2024-03-02T12:41:50;19.30;42.30
40289;DHT22;28991;52.028;5.526;2024-03-02T12:44:17;19.20;42.40
40289;DHT22;28991;52.028;5.526;2024-03-02T12:46:42;19.20;42.50
40289;DHT22;28991;52.028;5.526;2024-03-02T12:49:10;19.20;42.50
40289;DHT22;28991;52.028;5.526;2024-03-02T12:51:37;19.20;42.60
40289;DHT22;28991;52.028;5.526;2024-03-02T12:54:03;19.20;42.60
40289;DHT22;28991;52.028;5.526;2024-03-02T12:56:29;19.10;42.70
40289;DHT22;28991;52.028;5.526;2024-03-02T12:58:55;19.00;42.70
40289;DHT22;28991;52.028;5.526;2024-03-02T13:01:21;19.10;42.80
40289;DHT22;28991;52.028;5.526;2024-03-02T13:03:50;19.10;42.90
40289;DHT22;28991;52.028;5.526;2024-03-02T13:06:18;19.10;43.00
40289;DHT22;28991;52.028;5.526;2024-03-02T13:08:45;19.10;43.00
40289;DHT22;28991;52.028;5.526;2024-03-02T13:11:11;19.10;43.10
40289;DHT22;28991;52.028;5.526;2024-03-02T13:13:38;19.10;43.20
40289;DHT22;28991;52.028;5.526;2024-03-02T13:16:11;19.10;43.20
40289;DHT22;28991;52.028;5.526;2024-03-02T13:18:38;19.10;43.20
40289;DHT22;28991;52.028;5.526;2024-03-02T13:21:04;19.10;43.30
40289;DHT22;28991;52.028;5.526;2024-03-02T13:23:30;19.10;43.30
40289;DHT22;28991;52.028;5.526;2024-03-02T13:25:57;19.40;43.60
40289;DHT22;28991;52.028;5.526;2024-03-02T13:28:26;19.00;43.40
40289;DHT22;28991;52.028;5.526;2024-03-02T13:30:52;19.10;43.50
40289;DHT22;28991;52.028;5.526;2024-03-02T13:33:18;19.00;43.40
40289;DHT22;28991;52.028;5.526;2024-03-02T13:35:51;19.10;43.60
40289;DHT22;28991;52.028;5.526;2024-03-02T13:38:20;19.10;43.60
40289;DHT22;28991;52.028;5.526;2024-03-02T13:40:49;19.10;43.70
40289;DHT22;28991;52.028;5.526;2024-03-02T13:43:18;19.10;43.60
40289;DHT22;28991;52.028;5.526;2024-03-02T13:45:46;19.60;43.90
40289;DHT22;28991;52.028;5.526;2024-03-02T13:48:12;19.20;43.70
40289;DHT22;28991;52.028;5.526;2024-03-02T13:50:37;19.60;43.90
40289;DHT22;28991;52.028;5.526;2024-03-02T13:53:03;19.20;43.70
40289;DHT22;28991;52.028;5.526;2024-03-02T13:55:28;19.20;43.80
40289;DHT22;28991;52.028;5.526;2024-03-02T13:57:54;19.50;44.00
40289;DHT22;28991;52.028;5.526;2024-03-02T14:00:20;19.20;43.80
40289;DHT22;28991;52.028;5.526;2024-03-02T14:02:46;19.10;43.80
40289;DHT22;28991;52.028;5.526;2024-03-02T14:05:12;19.20;43.90
40289;DHT22;28991;52.028;5.526;2024-03-02T14:07:39;19.20;43.90
40289;DHT22;28991;52.028;5.526;2024-03-02T14:10:06;19.20;43.90
40289;DHT22;28991;52.028;5.526;2024-03-02T14:12:31;19.20;43.90
40289;DHT22;28991;52.028;5.526;2024-03-02T14:14:57;19.20;44.00
40289;DHT22;28991;52.028;5.526;2024-03-02T14:17:28;19.80;44.30
40289;DHT22;28991;52.028;5.526;2024-03-02T14:19:53;19.20;44.60
40289;DHT22;28991;52.028;5.526;2024-03-02T14:22:22;19.30;44.10
40289;DHT22;28991;52.028;5.526;2024-03-02T14:24:47;19.30;44.10
40289;DHT22;28991;52.028;5.526;2024-03-02T14:27:14;19.20;44.10
40289;DHT22;28991;52.028;5.526;2024-03-02T14:29:42;19.40;44.20
40289;DHT22;28991;52.028;5.526;2024-03-02T14:32:08;19.30;44.20
40289;DHT22;28991;52.028;5.526;2024-03-02T14:34:33;19.30;44.20
40289;DHT22;28991;52.028;5.526;2024-03-02T14:36:59;19.20;44.20
40289;DHT22;28991;52.028;5.526;2024-03-02T14:39:26;19.20;44.10
40289;DHT22;28991;52.028;5.526;2024-03-02T14:41:51;19.20;44.10
40289;DHT22;28991;52.028;5.526;2024-03-02T14:44:17;19.30;44.20
40289;DHT22;28991;52.028;5.526;2024-03-02T14:46:43;19.30;44.20
40289;DHT22;28991;52.028;5.526;2024-03-02T14:49:09;19.30;44.30
40289;DHT22;28991;52.028;5.526;2024-03-02T14:51:36;19.30;44.30
40289;DHT22;28991;52.028;5.526;2024-03-02T14:54:01;19.20;44.20
40289;DHT22;28991;52.028;5.526;2024-03-02T14:56:28;19.20;44.20
40289;DHT22;28991;52.028;5.526;2024-03-02T14:58:54;19.30;44.20
40289;DHT22;28991;52.028;5.526;2024-03-02T15:01:19;19.20;44.20
40289;DHT22;28991;52.028;5.526;2024-03-02T15:03:48;19.20;44.20
40289;DHT22;28991;52.028;5.526;2024-03-02T15:06:14;19.30;44.30
40289;DHT22;28991;52.028;5.526;2024-03-02T15:08:40;19.40;44.40
40289;DHT22;28991;52.028;5.526;2024-03-02T15:11:07;19.20;44.30
40289;DHT22;28991;52.028;5.526;2024-03-02T15:13:33;19.20;44.30
40289;DHT22;28991;52.028;5.526;2024-03-02T15:15:59;19.20;44.30
40289;DHT22;28991;52.028;5.526;2024-03-02T15:18:25;19.20;44.30
40289;DHT22;28991;52.028;5.526;2024-03-02T15:20:50;19.90;44.70
40289;DHT22;28991;52.028;5.526;2024-03-02T15:23:16;19.40;44.50
40289;DHT22;28991;52.028;5.526;2024-03-02T15:25:42;19.20;44.40
40289;DHT22;28991;52.028;5.526;2024-03-02T15:28:07;19.20;44.40
40289;DHT22;28991;52.028;5.526;2024-03-02T15:30:33;19.40;44.50
40289;DHT22;28991;52.028;5.526;2024-03-02T15:32:59;19.20;44.40
40289;DHT22;28991;52.028;5.526;2024-03-02T15:35:24;19.20;44.50
40289;DHT22;28991;52.028;5.526;2024-03-02T15:37:50;20.00;45.50
40289;DHT22;28991;52.028;5.526;2024-03-02T15:40:15;19.60;44.70